Time;durP1;ratioP1;P1;durP2;ratioP2;P2;SDS_P1;SDS_P2;PMS_P1;PMS_P2;Temp;Humidity;BMP_temperature;BMP_pressure;BME280_temperature;BME280_humidity;BME280_pressure;Samples;Min_cycle;Max_cycle;Signal;HPM_P1;HPM_P2
2022/11/01 00:01:30;;;;;;;26.65;9.93;;;9.60;99.90;;;;;;5002357;28;20382;-53
2022/11/01 00:03:57;;;;;;;16.00;9.38;;;9.50;99.90;;;;;;4998408;28;20057;-54
2022/11/01 00:06:24;;;;;;;;;;;9.50;99.90;;;;;;5000399;28;20041;-54
2022/11/01 00:08:50;;;;;;;17.92;8.27;;;9.40;99.90;;;;;;5001652;28;19929;-55
2022/11/01 00:11:18;;;;;;;17.45;8.90;;;9.40;99.90;;;;;;5007821;28;20153;-54
2022/11/01 00:13:47;;;;;;;22.38;9.73;;;9.40;99.90;;;;;;5000116;28;20164;-54
2022/11/01 00:16:15;;;;;;;16.92;10.43;;;9.40;99.90;;;;;;5002475;28;20040;-55
2022/11/01 00:18:42;;;;;;;27.80;11.93;;;9.40;99.90;;;;;;4998487;28;20056;-54
2022/11/01 00:21:10;;;;;;;21.55;11.73;;;9.30;99.90;;;;;;4998630;28;20049;-55
2022/11/01 00:23:37;;;;;;;21.02;13.00;;;9.40;99.90;;;;;;4999779;28;20050;-55
2022/11/01 00:26:04;;;;;;;37.25;13.45;;;9.40;99.90;;;;;;5002527;28;20041;-55
2022/11/01 00:28:32;;;;;;;23.65;11.10;;;9.40;99.90;;;;;;4999377;28;20089;-55
2022/11/01 00:30:58;;;;;;;21.55;11.52;;;9.50;99.90;;;;;;4999283;28;20242;-52
2022/11/01 00:33:25;;;;;;;;;;;9.60;99.90;;;;;;4999564;28;20080;-52
2022/11/01 00:35:52;;;;;;;22.90;11.75;;;9.60;99.90;;;;;;4999194;28;19930;-53
2022/11/01 00:38:19;;;;;;;;;;;9.60;99.90;;;;;;5002833;28;20042;-53
2022/11/01 00:40:46;;;;;;;23.40;10.90;;;9.70;99.90;;;;;;4998242;28;19927;-54
2022/11/01 00:43:12;;;;;;;;;;;9.70;99.90;;;;;;5000216;28;20046;-54
2022/11/01 00:45:42;;;;;;;18.80;10.15;;;9.80;99.90;;;;;;5006903;28;19965;-54
2022/11/01 00:48:11;;;;;;;19.35;9.98;;;9.70;99.90;;;;;;4996173;28;20093;-54
2022/11/01 00:50:38;;;;;;;18.60;10.60;;;9.80;99.90;;;;;;4999640;28;20038;-54
2022/11/01 00:53:06;;;;;;;21.00;9.25;;;9.70;99.90;;;;;;5000963;28;20687;-55
2022/11/01 00:55:33;;;;;;;27.02;10.70;;;9.70;99.90;;;;;;4999607;28;20053;-55
2022/11/01 00:58:00;;;;;;;24.30;11.38;;;9.60;99.90;;;;;;4998613;28;20753;-52
2022/11/01 01:00:27;;;;;;;20.08;10.38;;;9.60;99.90;;;;;;4997559;28;20580;-59
2022/11/01 01:02:54;;;;;;;23.67;11.27;;;9.60;99.90;;;;;;5007151;28;20045;-55
2022/11/01 01:05:21;;;;;;;;;;;9.60;99.90;;;;;;5001151;28;20077;-55
2022/11/01 01:07:47;;;;;;;23.50;10.45;;;9.60;99.90;;;;;;4997015;28;19925;-54
2022/11/01 01:10:14;;;;;;;19.00;9.73;;;9.70;99.90;;;;;;5000907;28;20046;-54
2022/11/01 01:12:41;;;;;;;;;;;9.70;99.90;;;;;;4999996;28;20049;-55
2022/11/01 01:15:08;;;;;;;24.95;12.60;;;9.70;99.90;;;;;;4999644;28;19925;-54
2022/11/01 01:17:35;;;;;;;27.35;12.85;;;9.70;99.90;;;;;;4998263;28;20064;-56
2022/11/01 01:20:02;;;;;;;30.95;12.48;;;9.70;99.90;;;;;;4999222;28;20832;-53
2022/11/01 01:22:28;;;;;;;31.95;12.02;;;9.80;99.90;;;;;;5001289;28;20042;-55
2022/11/01 01:24:55;;;;;;;23.58;10.98;;;9.90;99.90;;;;;;4999104;28;20662;-53
2022/11/01 01:27:22;;;;;;;15.93;10.07;;;9.90;99.90;;;;;;4998595;28;20034;-54
2022/11/01 01:29:50;;;;;;;;;;;9.90;99.90;;;;;;5003579;28;20034;-54
2022/11/01 01:32:21;;;;;;;17.88;10.25;;;9.90;99.90;;;;;;5001438;28;19929;-55
2022/11/01 01:34:49;;;;;;;27.92;9.13;;;9.90;99.90;;;;;;4998155;28;20717;-54
2022/11/01 01:37:15;;;;;;;16.70;8.45;;;9.90;99.90;;;;;;4997660;28;20046;-57
2022/11/01 01:39:42;;;;;;;;;;;9.90;99.90;;;;;;4998991;28;20037;-54
2022/11/01 01:42:33;;;;;;;24.27;10.27;;;9.90;99.90;;;;;;4995469;28;19931;-54
2022/11/01 01:45:20;;;;;;;17.17;9.00;;;9.90;99.90;;;;;;4999609;28;20072;-55
2022/11/01 01:47:50;;;;;;;20.55;9.07;;;9.90;99.90;;;;;;4996071;28;20654;-54
2022/11/01 01:50:34;;;;;;;17.25;8.82;;;10.00;99.90;;;;;;5000537;28;20126;-54
2022/11/01 01:53:25;;;;;;;21.65;9.15;;;10.00;99.90;;;;;;4996544;28;20049;-53
2022/11/01 01:55:58;;;;;;;18.70;8.95;;;10.00;99.90;;;;;;5000868;28;20058;-54
2022/11/01 01:58:31;;;;;;;18.77;8.50;;;10.00;99.90;;;;;;4999038;28;20104;-55
2022/11/01 02:00:58;;;;;;;20.05;7.55;;;10.00;99.90;;;;;;4998941;28;20052;-54
2022/11/01 02:03:31;;;;;;;20.90;8.05;;;10.10;99.90;;;;;;5000718;28;20053;-55
2022/11/01 02:06:06;;;;;;;16.67;7.13;;;10.20;99.90;;;;;;4997583;28;20053;-53
2022/11/01 02:08:34;;;;;;;17.20;6.25;;;10.20;99.90;;;;;;4996790;28;20040;-55
2022/11/01 02:11:04;;;;;;;18.65;6.20;;;10.20;99.90;;;;;;5000238;28;20048;-54
2022/11/01 02:13:31;;;;;;;14.20;5.72;;;10.20;99.90;;;;;;5014529;28;20049;-55
2022/11/01 02:16:19;;;;;;;16.77;5.30;;;10.30;99.90;;;;;;5000531;28;20045;-54
2022/11/01 02:19:34;;;;;;;14.75;5.30;;;10.30;99.90;;;;;;5005683;28;20077;-53
2022/11/01 02:22:20;;;;;;;10.32;4.80;;;10.30;99.90;;;;;;4995154;28;20053;-55
2022/11/01 02:25:03;;;;;;;12.43;5.22;;;10.30;99.90;;;;;;4996998;28;20045;-53
2022/11/01 02:27:58;;;;;;;16.58;5.20;;;10.40;99.90;;;;;;4996669;28;20049;-57
2022/11/01 02:30:37;;;;;;;14.57;5.63;;;10.40;99.90;;;;;;5000769;28;20041;-54
2022/11/01 02:33:15;;;;;;;18.83;4.97;;;10.40;99.90;;;;;;5002983;28;20045;-54
2022/11/01 02:36:07;;;;;;;14.25;5.20;;;10.50;99.90;;;;;;5000311;28;20045;-53
2022/11/01 02:39:04;;;;;;;17.70;5.32;;;10.50;99.90;;;;;;5003918;28;20065;-55
2022/11/01 02:41:38;;;;;;;16.40;6.38;;;10.50;99.90;;;;;;4994776;28;20062;-54
2022/11/01 02:44:13;;;;;;;14.93;5.90;;;10.60;99.90;;;;;;5002233;28;20073;-54
2022/11/01 02:47:01;;;;;;;20.52;5.03;;;10.60;99.90;;;;;;5003898;28;20702;-55
2022/11/01 02:49:30;;;;;;;20.33;6.93;;;10.80;99.90;;;;;;5003657;28;20050;-54
2022/11/01 02:51:59;;;;;;;16.95;4.93;;;10.90;99.90;;;;;;4998800;28;20140;-53
2022/11/01 02:54:37;;;;;;;11.75;5.15;;;10.90;99.90;;;;;;5000706;28;20503;-54
2022/11/01 02:57:22;;;;;;;12.52;5.47;;;11.00;99.90;;;;;;5000874;28;20084;-54
2022/11/01 02:59:49;;;;;;;10.00;4.82;;;11.00;99.90;;;;;;5001917;28;20713;-54
2022/11/01 03:02:41;;;;;;;11.35;5.18;;;10.90;99.90;;;;;;5001378;28;20049;-59
2022/11/01 03:05:34;;;;;;;20.08;5.38;;;10.90;99.90;;;;;;5003288;28;20077;-55
2022/11/01 03:08:06;;;;;;;12.63;4.93;;;10.80;99.90;;;;;;5001224;28;20037;-53
2022/11/01 03:10:43;;;;;;;14.57;5.25;;;10.70;99.90;;;;;;4999439;28;20092;-54
2022/11/01 03:13:16;;;;;;;;;;;10.70;99.90;;;;;;5001219;28;20092;-55
2022/11/01 03:15:55;;;;;;;9.68;5.03;;;10.60;99.90;;;;;;5003319;28;20404;-54
2022/11/01 03:18:31;;;;;;;13.85;4.85;;;10.50;99.90;;;;;;4999955;28;20045;-57
2022/11/01 03:21:14;;;;;;;11.95;3.72;;;10.50;99.90;;;;;;5001857;28;20056;-54
2022/11/01 03:24:17;;;;;;;7.95;3.53;;;10.50;99.90;;;;;;4998063;28;21018;-54
2022/11/01 03:26:51;;;;;;;7.47;3.78;;;10.50;99.90;;;;;;5001916;28;21065;-55
2022/11/01 03:29:21;;;;;;;17.88;5.07;;;10.50;99.90;;;;;;5000442;28;20045;-54
2022/11/01 03:31:50;;;;;;;8.57;4.55;;;10.40;99.90;;;;;;5000259;28;20073;-53
2022/11/01 03:34:18;;;;;;;11.32;4.97;;;10.40;99.90;;;;;;5000042;28;20068;-55
2022/11/01 03:36:52;;;;;;;13.45;4.82;;;10.40;99.90;;;;;;5000551;28;20049;-54
2022/11/01 03:39:25;;;;;;;12.30;4.97;;;10.40;99.90;;;;;;5003004;28;20074;-55
2022/11/01 03:42:00;;;;;;;8.05;3.65;;;10.40;99.90;;;;;;4997738;28;20080;-55
2022/11/01 03:44:31;;;;;;;11.13;5.47;;;10.30;99.90;;;;;;4997663;28;20052;-54
2022/11/01 03:46:58;;;;;;;13.10;5.20;;;10.30;99.90;;;;;;5000361;28;20093;-55
2022/11/01 03:49:25;;;;;;;;;;;10.30;99.90;;;;;;5003528;28;20053;-52
2022/11/01 03:51:52;;;;;;;17.98;5.75;;;10.20;99.90;;;;;;5001374;28;19925;-54
2022/11/01 03:54:18;;;;;;;;;;;10.20;99.90;;;;;;5000416;28;20061;-54
2022/11/01 03:56:45;;;;;;;16.58;5.13;;;10.20;99.90;;;;;;4998846;28;20319;-55
2022/11/01 03:59:12;;;;;;;;;;;10.20;99.90;;;;;;5001400;28;20053;-53
2022/11/01 04:01:39;;;;;;;8.40;4.00;;;10.20;99.90;;;;;;5002557;28;19943;-53
2022/11/01 04:04:06;;;;;;;13.52;4.30;;;10.20;99.90;;;;;;5000813;28;20048;-55
2022/11/01 04:06:33;;;;;;;10.80;4.55;;;10.20;99.90;;;;;;4997601;28;20057;-55
2022/11/01 04:08:59;;;;;;;14.25;4.28;;;10.20;99.90;;;;;;5000943;28;20667;-54
2022/11/01 04:11:26;;;;;;;12.25;4.93;;;10.20;99.90;;;;;;4998491;28;20122;-51
2022/11/01 04:20:31;;;;;;;;;;;10.20;99.90;;;;;;4997567;28;20104;-53
2022/11/01 04:22:11;;;;;;;11.80;3.90;;;10.10;99.90;;;;;;5001152;28;20037;-55
2022/11/01 04:24:37;;;;;;;8.93;4.78;;;10.10;99.90;;;;;;5001465;28;20041;-56
2022/11/01 04:27:04;;;;;;;11.95;4.90;;;10.10;99.90;;;;;;5000328;28;20047;-52
2022/11/01 04:29:31;;;;;;;10.13;4.22;;;10.10;99.90;;;;;;5000545;28;20052;-54
2022/11/01 04:31:58;;;;;;;;;;;10.10;99.90;;;;;;5000321;28;20637;-54
2022/11/01 04:34:43;;;;;;;13.07;4.28;;;10.10;99.90;;;;;;5000051;28;19926;-56
2022/11/01 04:37:11;;;;;;;11.73;4.93;;;10.20;99.90;;;;;;5007631;28;20969;-54
2022/11/01 04:39:38;;;;;;;7.00;3.70;;;10.20;99.90;;;;;;5000757;28;20534;-54
2022/11/01 04:42:04;;;;;;;;;;;10.20;99.90;;;;;;4998995;28;20217;-55
2022/11/01 04:44:31;;;;;;;13.63;3.95;;;10.20;99.90;;;;;;5002019;28;20380;-54
2022/11/01 04:46:58;;;;;;;13.15;5.03;;;10.30;99.90;;;;;;4997667;28;20053;-53
2022/11/01 04:49:24;;;;;;;;;;;10.30;99.90;;;;;;5002560;28;20671;-53
2022/11/01 04:51:51;;;;;;;11.77;5.07;;;10.30;99.90;;;;;;4999049;28;19925;-54
2022/11/01 04:54:18;;;;;;;12.32;4.63;;;10.40;99.90;;;;;;4999810;28;20050;-52
2022/11/01 04:56:44;;;;;;;13.63;5.65;;;10.40;99.90;;;;;;5000162;28;20221;-59
2022/11/01 04:59:11;;;;;;;10.07;4.85;;;10.40;99.90;;;;;;5001151;28;20045;-52
2022/11/01 05:01:38;;;;;;;21.10;5.82;;;10.50;99.90;;;;;;4998910;28;20129;-54
2022/11/01 05:04:05;;;;;;;15.93;5.03;;;10.50;99.90;;;;;;5001179;28;20069;-53
2022/11/01 05:06:32;;;;;;;12.27;6.05;;;10.60;99.90;;;;;;4999951;28;20092;-52
2022/11/01 05:08:58;;;;;;;;;;;10.70;99.90;;;;;;4998643;28;20151;-54
2022/11/01 05:11:25;;;;;;;13.13;4.80;;;10.80;99.90;;;;;;4996743;28;19925;-54
2022/11/01 05:13:52;;;;;;;;;;;11.00;99.90;;;;;;5001035;28;20136;-53
2022/11/01 05:16:18;;;;;;;19.17;4.63;;;11.20;99.90;;;;;;4997086;28;20027;-55
2022/11/01 05:18:47;;;;;;;14.48;5.95;;;11.40;99.90;;;;;;5000449;28;20045;-55
2022/11/01 05:21:14;;;;;;;15.63;5.35;;;11.60;99.90;;;;;;5000318;28;20131;-53
2022/11/01 05:23:41;;;;;;;;;;;11.60;99.90;;;;;;4998441;28;20041;-55
2022/11/01 05:26:07;;;;;;;16.27;5.13;;;11.70;99.90;;;;;;5000037;28;19925;-52
2022/11/01 05:28:34;;;;;;;10.50;5.10;;;11.70;99.90;;;;;;4998029;28;20041;-56
2022/11/01 05:31:01;;;;;;;;;;;12.00;99.90;;;;;;5005591;28;20050;-55
2022/11/01 05:33:28;;;;;;;13.95;5.40;;;12.10;99.90;;;;;;4995403;28;19925;-53
2022/11/01 05:35:54;;;;;;;26.98;5.22;;;12.30;99.90;;;;;;4998401;28;20047;-53
2022/11/01 05:38:21;;;;;;;;;;;12.60;99.90;;;;;;5000857;28;20060;-54
2022/11/01 05:40:48;;;;;;;17.50;5.35;;;12.80;99.90;;;;;;4997648;28;20694;-54
2022/11/01 05:43:14;;;;;;;;;;;12.90;99.90;;;;;;5003832;28;20103;-54
2022/11/01 05:45:41;;;;;;;18.45;5.22;;;13.10;99.90;;;;;;5008051;28;19952;-55
2022/11/01 05:48:08;;;;;;;;;;;13.20;99.90;;;;;;4997542;28;20944;-54
2022/11/01 05:50:35;;;;;;;17.85;5.70;;;13.30;99.90;;;;;;5003602;28;19925;-54
2022/11/01 05:53:08;;;;;;;15.93;5.95;;;13.40;99.90;;;;;;4999844;28;20886;-53
2022/11/01 05:55:35;;;;;;;15.30;5.38;;;13.40;99.90;;;;;;5001815;28;20054;-53
2022/11/01 05:58:02;;;;;;;;;;;13.50;99.90;;;;;;4999592;28;20041;-54
2022/11/01 06:00:30;;;;;;;15.43;4.93;;;13.50;99.90;;;;;;5005963;28;19931;-54
2022/11/01 06:02:59;;;;;;;14.38;6.65;;;13.60;99.90;;;;;;5001107;28;20820;-54
2022/11/01 06:05:28;;;;;;;12.32;5.72;;;13.70;99.90;;;;;;5000596;28;20042;-54
2022/11/01 06:07:55;;;;;;;18.02;5.55;;;13.70;99.90;;;;;;5002578;28;20068;-55
2022/11/01 06:10:22;;;;;;;18.92;6.15;;;13.70;99.90;;;;;;5005242;28;20455;-55
2022/11/01 06:12:49;;;;;;;20.00;5.95;;;13.70;99.90;;;;;;5001784;28;20192;-54
2022/11/01 06:15:16;;;;;;;15.85;5.03;;;13.70;99.90;;;;;;5007926;28;20050;-55
2022/11/01 06:17:42;;;;;;;13.10;5.20;;;13.70;99.90;;;;;;5000628;28;20045;-58
2022/11/01 06:20:10;;;;;;;;;;;13.60;99.90;;;;;;5006566;28;20113;-54
2022/11/01 06:22:37;;;;;;;10.80;3.90;;;13.70;99.90;;;;;;5001438;28;20365;-55
2022/11/01 06:25:05;;;;;;;11.52;4.70;;;13.70;99.90;;;;;;5002821;28;20051;-53
2022/11/01 06:27:32;;;;;;;13.20;2.88;;;13.70;99.90;;;;;;5004276;28;20069;-54
2022/11/01 06:29:59;;;;;;;13.35;3.22;;;13.70;99.90;;;;;;5003446;28;20103;-54
2022/11/01 06:32:26;;;;;;;9.88;3.17;;;13.80;99.90;;;;;;5001150;28;20041;-54
2022/11/01 06:34:52;;;;;;;11.57;3.17;;;13.80;99.90;;;;;;5001466;28;20050;-54
2022/11/01 06:37:19;;;;;;;10.90;2.60;;;13.80;99.90;;;;;;4999074;28;20046;-52
2022/11/01 06:39:46;;;;;;;9.93;3.22;;;13.80;99.90;;;;;;5004906;28;20038;-51
2022/11/01 06:42:12;;;;;;;;;;;13.80;99.90;;;;;;5004284;28;20038;-55
2022/11/01 06:44:39;;;;;;;15.60;4.00;;;13.80;99.90;;;;;;5001835;28;20023;-56
2022/11/01 06:47:06;;;;;;;8.15;2.63;;;13.80;99.90;;;;;;5000062;28;20894;-56
2022/11/01 06:49:33;;;;;;;12.10;2.78;;;13.70;99.90;;;;;;5001646;28;20088;-53
2022/11/01 06:52:00;;;;;;;10.38;2.97;;;13.80;99.90;;;;;;5005560;28;20052;-55
2022/11/01 06:54:26;;;;;;;9.02;3.83;;;13.80;99.90;;;;;;5002605;28;20523;-55
2022/11/01 06:56:53;;;;;;;9.00;2.85;;;13.80;99.90;;;;;;5004038;28;20041;-53
2022/11/01 06:59:20;;;;;;;11.80;3.50;;;13.80;99.90;;;;;;5003044;28;20055;-55
2022/11/01 07:01:46;;;;;;;;;;;13.80;99.90;;;;;;5002170;28;20119;-53
2022/11/01 07:04:13;;;;;;;7.93;2.53;;;13.80;99.90;;;;;;5002486;28;19925;-56
2022/11/01 07:06:40;;;;;;;;;;;13.80;99.90;;;;;;5003152;28;20038;-55
2022/11/01 07:09:06;;;;;;;6.25;2.60;;;13.80;99.90;;;;;;4998045;28;19925;-56
2022/11/01 07:11:33;;;;;;;13.02;2.67;;;13.80;99.90;;;;;;4998579;28;20050;-56
2022/11/01 07:14:00;;;;;;;6.72;2.83;;;13.80;99.90;;;;;;4999596;28;20048;-56
2022/11/01 07:16:27;;;;;;;7.55;2.35;;;13.80;99.90;;;;;;5008260;28;20041;-54
2022/11/01 07:18:54;;;;;;;10.93;3.25;;;13.80;99.90;;;;;;5000733;28;20077;-53
2022/11/01 07:21:21;;;;;;;9.13;2.88;;;13.80;99.90;;;;;;4997616;28;20059;-56
2022/11/01 07:23:48;;;;;;;9.68;2.92;;;13.80;99.90;;;;;;5000545;28;20989;-55
2022/11/01 07:26:15;;;;;;;9.73;3.13;;;13.80;99.90;;;;;;5000548;28;20120;-55
2022/11/01 07:28:42;;;;;;;5.88;3.17;;;13.80;99.90;;;;;;5001571;28;20041;-57
2022/11/01 07:31:09;;;;;;;8.95;3.55;;;13.80;99.90;;;;;;4998282;28;20056;-57
2022/11/01 07:33:35;;;;;;;;;;;13.80;99.90;;;;;;5002491;28;20137;-56
2022/11/01 07:36:03;;;;;;;8.38;2.58;;;13.80;99.90;;;;;;4996116;28;19925;-55
2022/11/01 07:38:31;;;;;;;6.93;2.60;;;13.80;99.90;;;;;;4999471;28;20045;-57
2022/11/01 07:40:57;;;;;;;11.32;2.42;;;13.70;99.90;;;;;;4996573;28;20077;-56
2022/11/01 07:43:24;;;;;;;8.35;2.78;;;13.70;99.90;;;;;;4999607;28;20044;-56
2022/11/01 07:45:51;;;;;;;;;;;13.70;99.90;;;;;;5002992;28;20646;-55
2022/11/01 07:48:18;;;;;;;9.00;3.08;;;13.70;99.90;;;;;;4999326;28;19921;-55
2022/11/01 07:50:45;;;;;;;8.43;3.03;;;13.70;99.90;;;;;;5001917;28;20041;-56
2022/11/01 07:53:15;;;;;;;5.32;2.35;;;13.70;99.90;;;;;;4998929;28;20042;-56
2022/11/01 07:55:43;;;;;;;8.65;2.55;;;13.70;99.90;;;;;;4997799;28;20414;-54
2022/11/01 07:58:10;;;;;;;6.47;2.97;;;13.70;99.90;;;;;;4999557;28;20052;-57
2022/11/01 08:00:38;;;;;;;8.13;3.00;;;13.70;99.90;;;;;;4996898;28;20046;-53
2022/11/01 08:03:11;;;;;;;7.22;1.95;;;13.70;99.90;;;;;;4999117;28;20060;-53
2022/11/01 08:05:38;;;;;;;5.32;1.95;;;13.80;99.90;;;;;;4999810;28;20100;-56
2022/11/01 08:08:06;;;;;;;7.45;2.55;;;13.80;99.90;;;;;;4999421;28;21030;-55
2022/11/01 08:10:34;;;;;;;7.20;2.83;;;13.80;99.90;;;;;;4999930;28;20041;-54
2022/11/01 08:13:02;;;;;;;6.72;2.85;;;13.80;99.90;;;;;;4996749;28;20038;-55
2022/11/01 08:15:29;;;;;;;12.88;3.33;;;13.90;99.90;;;;;;4997940;28;20103;-55
2022/11/01 08:17:57;;;;;;;12.90;3.80;;;13.90;99.90;;;;;;4999312;28;20068;-54
2022/11/01 08:20:25;;;;;;;6.60;2.70;;;13.90;99.90;;;;;;5000120;28;20057;-54
2022/11/01 08:22:52;;;;;;;7.65;2.63;;;14.00;99.90;;;;;;5007639;28;20042;-55
2022/11/01 08:25:20;;;;;;;8.60;2.70;;;14.00;99.90;;;;;;5001078;28;20042;-54
2022/11/01 08:27:46;;;;;;;11.77;3.30;;;14.10;99.90;;;;;;5000979;28;20662;-54
2022/11/01 08:30:13;;;;;;;;;;;14.20;99.90;;;;;;4997092;28;20048;-55
2022/11/01 08:32:40;;;;;;;6.85;2.63;;;14.20;99.90;;;;;;4996200;28;20016;-55
2022/11/01 08:35:07;;;;;;;;;;;14.30;99.90;;;;;;4998144;28;20072;-54
2022/11/01 08:37:34;;;;;;;16.67;4.37;;;14.30;99.90;;;;;;4998087;28;19932;-52
2022/11/01 08:40:02;;;;;;;14.13;3.72;;;14.40;99.90;;;;;;5000084;28;20037;-51
2022/11/01 08:42:28;;;;;;;5.85;2.80;;;14.40;99.90;;;;;;4999631;28;20056;-54
2022/11/01 08:44:55;;;;;;;12.35;3.90;;;14.40;99.90;;;;;;5015992;28;20044;-53
2022/11/01 08:47:22;;;;;;;12.48;3.08;;;14.40;99.90;;;;;;4999079;28;20049;-54
2022/11/01 08:49:48;;;;;;;;;;;14.50;99.90;;;;;;4998988;28;20348;-57
2022/11/01 08:52:15;;;;;;;7.28;3.00;;;14.50;99.90;;;;;;4998788;28;20104;-57
2022/11/01 08:54:42;;;;;;;;;;;14.50;99.90;;;;;;4998048;28;20045;-56
2022/11/01 08:57:09;;;;;;;10.23;3.05;;;14.60;99.90;;;;;;4996736;28;19940;-55
2022/11/01 08:59:35;;;;;;;6.85;2.50;;;14.60;99.90;;;;;;4999606;28;20736;-56
2022/11/01 09:02:02;;;;;;;8.07;2.50;;;14.60;99.90;;;;;;4996441;28;20144;-57
2022/11/01 09:04:29;;;;;;;5.07;2.30;;;14.60;99.90;;;;;;4998630;28;20053;-55
2022/11/01 09:06:56;;;;;;;;;;;14.60;99.90;;;;;;4998898;28;20069;-55
2022/11/01 09:09:23;;;;;;;8.15;3.65;;;14.60;99.90;;;;;;5000858;28;19925;-55
2022/11/01 09:11:50;;;;;;;;;;;14.70;99.90;;;;;;5001888;28;20091;-54
2022/11/01 09:14:17;;;;;;;14.67;3.23;;;14.70;99.90;;;;;;4995941;28;20820;-55
2022/11/01 09:16:44;;;;;;;7.22;2.85;;;14.70;99.90;;;;;;4998584;28;20595;-55
2022/11/01 09:19:10;;;;;;;10.25;2.95;;;14.80;99.90;;;;;;4996860;28;20053;-54
2022/11/01 09:21:37;;;;;;;3.92;2.28;;;14.80;99.90;;;;;;4999052;28;20124;-55
2022/11/01 09:24:04;;;;;;;12.75;5.10;;;14.80;99.90;;;;;;4993916;28;20033;-57
2022/11/01 09:26:31;;;;;;;17.80;5.38;;;14.90;99.90;;;;;;5004621;28;20048;-53
2022/11/01 09:28:58;;;;;;;13.07;4.55;;;14.90;99.90;;;;;;5001728;28;20034;-55
2022/11/01 09:31:25;;;;;;;12.82;4.97;;;15.00;99.90;;;;;;4998320;28;20038;-54
2022/11/01 09:33:52;;;;;;;;;;;15.10;99.90;;;;;;4999241;28;20052;-52
2022/11/01 09:36:20;;;;;;;14.13;5.43;;;15.10;99.90;;;;;;4998250;28;20024;-55
2022/11/01 09:38:46;;;;;;;17.25;5.20;;;15.10;99.90;;;;;;4998325;28;20052;-56
2022/11/01 09:41:32;;;;;;;7.00;3.42;;;15.20;99.90;;;;;;4998127;28;20050;-57
2022/11/01 09:44:02;;;;;;;13.57;6.88;;;15.30;99.90;;;;;;4997774;28;20917;-57
2022/11/01 09:46:36;;;;;;;10.60;4.50;;;15.30;99.90;;;;;;4996740;28;20103;-57
2022/11/01 09:49:05;;;;;;;13.95;4.18;;;15.50;99.90;;;;;;5000611;28;20740;-65
2022/11/01 09:51:32;;;;;;;11.95;4.57;;;15.60;99.90;;;;;;4997959;28;20054;-63
2022/11/01 09:54:03;;;;;;;;;;;15.70;99.90;;;;;;4999452;28;20054;-64
2022/11/01 09:57:02;;;;;;;16.13;3.60;;;15.80;99.90;;;;;;4998509;28;20040;-61
2022/11/01 09:59:47;;;;;;;13.38;3.88;;;16.00;99.90;;;;;;4988979;28;20058;-62
2022/11/01 10:02:35;;;;;;;13.35;3.88;;;16.20;99.90;;;;;;4999738;28;20053;-58
2022/11/01 10:05:35;;;;;;;13.93;3.42;;;16.30;99.90;;;;;;4996683;28;20038;-56
2022/11/01 10:08:30;;;;;;;11.43;3.90;;;16.50;99.90;;;;;;4997107;28;20046;-53
2022/11/01 10:11:28;;;;;;;8.68;3.28;;;16.60;99.90;;;;;;5006713;28;20763;-53
2022/11/01 10:14:03;;;;;;;7.30;2.88;;;16.70;99.90;;;;;;5004058;28;20777;-52
2022/11/01 10:16:40;;;;;;;13.98;3.88;;;16.90;99.90;;;;;;4995614;28;20046;-53
2022/11/01 10:19:16;;;;;;;16.67;3.63;;;17.00;99.90;;;;;;5001101;28;20037;-53
2022/11/01 10:21:53;;;;;;;10.60;3.00;;;17.10;99.90;;;;;;4996690;28;20099;-57
2022/11/01 10:24:33;;;;;;;17.38;4.63;;;17.10;99.90;;;;;;4996285;28;20786;-55
2022/11/01 10:27:17;;;;;;;15.07;4.10;;;17.10;99.90;;;;;;4994707;28;20049;-54
2022/11/01 10:29:47;;;;;;;18.17;5.20;;;17.10;99.90;;;;;;5000736;28;20069;-53
2022/11/01 10:32:39;;;;;;;17.25;3.80;;;17.10;99.90;;;;;;4996515;28;20042;-54
2022/11/01 10:35:26;;;;;;;12.10;3.40;;;17.10;99.90;;;;;;4998346;28;20132;-53
2022/11/01 10:38:27;;;;;;;14.68;3.97;;;17.10;99.90;;;;;;4994080;28;20072;-60
2022/11/01 10:41:50;;;;;;;13.02;4.13;;;17.00;99.90;;;;;;5004019;28;20046;-52
2022/11/01 10:44:23;;;;;;;9.98;3.25;;;17.00;99.90;;;;;;4997430;28;20125;-54
2022/11/01 10:46:51;;;;;;;15.70;3.60;;;17.00;99.90;;;;;;4997604;28;20077;-54
2022/11/01 10:49:30;;;;;;;13.63;3.33;;;17.00;99.90;;;;;;4997668;28;20033;-55
2022/11/01 10:52:21;;;;;;;8.68;3.17;;;16.90;99.90;;;;;;5003313;28;20539;-55
2022/11/01 10:54:49;;;;;;;10.88;2.90;;;16.90;99.90;;;;;;5000903;28;20549;-53
2022/11/01 10:57:29;;;;;;;7.65;3.33;;;16.80;99.90;;;;;;4999438;28;20056;-55
2022/11/01 10:59:58;;;;;;;12.27;3.00;;;16.80;99.90;;;;;;5001296;28;20139;-54
2022/11/01 11:02:33;;;;;;;11.05;3.30;;;16.80;99.90;;;;;;5002290;28;20069;-54
2022/11/01 11:04:59;;;;;;;12.30;3.95;;;16.70;99.90;;;;;;5003298;28;20063;-55
2022/11/01 11:07:28;;;;;;;;;;;16.60;99.90;;;;;;5002040;28;20080;-55
2022/11/01 11:09:55;;;;;;;17.27;4.18;;;16.60;99.90;;;;;;5001443;28;19925;-54
2022/11/01 11:12:24;;;;;;;11.80;3.58;;;16.50;99.90;;;;;;5000989;28;20068;-55
2022/11/01 11:14:57;;;;;;;12.88;4.10;;;16.50;99.90;;;;;;4998332;28;20152;-52
2022/11/01 11:17:32;;;;;;;14.18;4.68;;;16.40;99.90;;;;;;4999945;28;20044;-54
2022/11/01 11:20:05;;;;;;;11.38;3.42;;;16.40;99.90;;;;;;5001755;28;20909;-53
2022/11/01 11:22:38;;;;;;;15.45;3.50;;;16.30;99.90;;;;;;5000117;28;20053;-54
2022/11/01 11:25:12;;;;;;;18.85;4.15;;;16.20;99.90;;;;;;5000386;28;20091;-53
2022/11/01 11:27:44;;;;;;;9.05;3.42;;;16.30;99.90;;;;;;5000654;28;20888;-55
2022/11/01 11:30:13;;;;;;;12.25;3.42;;;16.30;99.90;;;;;;5001073;28;20440;-55
2022/11/01 11:32:47;;;;;;;11.52;3.85;;;16.30;99.90;;;;;;5001658;28;20046;-53
2022/11/01 11:35:18;;;;;;;9.13;3.25;;;16.20;99.90;;;;;;4996980;28;20086;-53
2022/11/01 11:37:59;;;;;;;10.50;3.92;;;16.20;99.90;;;;;;5000998;28;20608;-54
2022/11/01 11:40:39;;;;;;;8.13;3.33;;;16.20;99.90;;;;;;5001120;28;20519;-54
2022/11/01 11:43:30;;;;;;;9.93;3.40;;;16.20;99.90;;;;;;4999324;28;20052;-55
2022/11/01 11:46:09;;;;;;;11.75;3.20;;;16.20;99.90;;;;;;4999049;28;20041;-54
2022/11/01 11:48:58;;;;;;;17.17;4.07;;;16.20;99.90;;;;;;4997366;28;20033;-55
2022/11/01 11:51:31;;;;;;;14.77;4.38;;;16.30;99.90;;;;;;4998986;28;20038;-56
2022/11/01 11:54:13;;;;;;;15.73;4.00;;;16.30;99.90;;;;;;4996734;28;20056;-54
2022/11/01 11:56:40;;;;;;;13.45;4.47;;;16.30;99.90;;;;;;4998661;28;20050;-54
2022/11/01 11:59:24;;;;;;;15.60;4.78;;;16.30;99.90;;;;;;4999637;28;20048;-54
2022/11/01 12:02:05;;;;;;;12.00;5.13;;;16.40;99.90;;;;;;4996352;28;20149;-54
2022/11/01 12:04:40;;;;;;;10.00;3.42;;;16.40;99.90;;;;;;4998665;28;20042;-55
2022/11/01 12:07:22;;;;;;;12.45;3.80;;;16.40;99.90;;;;;;5001177;28;20593;-56
2022/11/01 12:09:49;;;;;;;15.65;3.35;;;16.40;99.90;;;;;;5000258;28;20042;-56
2022/11/01 12:12:31;;;;;;;9.85;3.25;;;16.40;99.90;;;;;;4996004;28;20046;-57
2022/11/01 12:14:59;;;;;;;17.15;4.18;;;16.40;99.90;;;;;;4999887;28;20046;-56
2022/11/01 12:17:30;;;;;;;15.60;3.40;;;16.40;99.90;;;;;;4999362;28;20521;-56
2022/11/01 12:20:17;;;;;;;19.40;3.72;;;16.40;99.90;;;;;;5001013;28;20878;-54
2022/11/01 12:22:50;;;;;;;12.57;2.95;;;16.30;99.90;;;;;;4999384;28;20058;-56
2022/11/01 12:25:23;;;;;;;12.60;4.03;;;16.30;99.90;;;;;;5000355;28;20171;-56
2022/11/01 12:27:53;;;;;;;15.73;3.30;;;16.30;99.90;;;;;;4997812;28;20052;-56
2022/11/01 12:30:26;;;;;;;15.35;3.85;;;16.20;99.90;;;;;;5006737;28;20099;-54
2022/11/01 12:32:55;;;;;;;20.63;4.03;;;16.30;99.90;;;;;;5000386;28;20045;-56
2022/11/01 12:35:28;;;;;;;14.55;3.22;;;16.20;99.90;;;;;;5001296;28;20068;-60
2022/11/01 12:38:12;;;;;;;27.35;3.60;;;16.20;99.90;;;;;;5005329;28;20394;-56
2022/11/01 12:40:42;;;;;;;10.27;3.10;;;16.20;99.90;;;;;;4997565;28;20124;-55
2022/11/01 12:43:18;;;;;;;15.15;3.55;;;16.20;99.90;;;;;;4999868;28;20149;-54
2022/11/01 12:45:48;;;;;;;9.25;3.42;;;16.20;99.90;;;;;;4999059;28;20045;-55
2022/11/01 12:48:22;;;;;;;17.13;3.92;;;16.20;99.90;;;;;;4997317;28;20050;-55
2022/11/01 12:51:12;;;;;;;13.77;3.90;;;16.20;99.90;;;;;;5007572;28;20044;-55
2022/11/01 12:53:46;;;;;;;19.63;3.95;;;16.20;99.90;;;;;;4997872;28;20054;-56
2022/11/01 12:56:12;;;;;;;10.40;3.97;;;16.20;99.90;;;;;;5000385;28;20140;-53
2022/11/01 12:58:39;;;;;;;15.85;3.67;;;16.20;99.90;;;;;;4998724;28;20053;-54
2022/11/01 13:01:19;;;;;;;;;;;16.20;99.90;;;;;;4999859;28;20410;-54
2022/11/01 13:04:08;;;;;;;10.32;3.95;;;16.20;99.90;;;;;;4998621;28;19928;-53
2022/11/01 13:06:53;;;;;;;13.05;4.05;;;16.20;99.90;;;;;;4998541;28;20043;-53
2022/11/01 13:09:35;;;;;;;15.25;5.57;;;16.20;99.90;;;;;;5001577;28;20696;-53
2022/11/01 13:12:27;;;;;;;15.95;4.07;;;16.30;99.90;;;;;;4996530;28;20049;-55
2022/11/01 13:15:18;;;;;;;13.63;4.60;;;16.20;99.90;;;;;;4985918;28;20058;-53
2022/11/01 13:17:52;;;;;;;15.27;3.42;;;16.20;99.90;;;;;;4998543;28;20049;-55
2022/11/01 13:20:46;;;;;;;14.90;3.95;;;16.20;99.90;;;;;;4996081;28;20056;-54